Time;durP1;ratioP1;P1;durP2;ratioP2;P2;SDS_P1;SDS_P2;PMS_P1;PMS_P2;Temp;Humidity;BMP_temperature;BMP_pressure;BME280_temperature;BME280_humidity;BME280_pressure;Samples;Min_cycle;Max_cycle;Signal;HPM_P1;HPM_P2
2022/06/21 00:01:00;;;;;;;3.33;1.65;;;23.90;95.60;;;;;;4226106;27;20604;-73
2022/06/21 00:03:06;;;;;;;3.78;1.98;;;23.90;95.60;;;;;;4226428;27;20218;-73
2022/06/21 00:05:15;;;;;;;2.45;1.75;;;23.90;95.60;;;;;;4226807;27;20217;-73
2022/06/21 00:07:23;;;;;;;4.03;1.95;;;23.90;95.60;;;;;;4223725;28;20269;-73
2022/06/21 00:09:25;;;;;;;2.88;1.92;;;23.90;95.60;;;;;;4223611;28;20301;-73
2022/06/21 00:11:31;;;;;;;3.95;1.67;;;23.90;95.70;;;;;;4221303;28;20279;-73
2022/06/21 00:13:35;;;;;;;4.07;2.03;;;23.90;95.70;;;;;;4224835;27;20222;-73
2022/06/21 00:15:39;;;;;;;4.60;1.90;;;23.90;95.70;;;;;;4223790;27;20210;-73
2022/06/21 00:17:47;;;;;;;5.18;2.03;;;23.90;96.10;;;;;;4223131;28;20559;-73
2022/06/21 00:19:50;;;;;;;2.70;1.60;;;23.90;95.70;;;;;;4222663;28;20263;-73
2022/06/21 00:21:52;;;;;;;3.08;1.75;;;23.90;95.70;;;;;;4222974;28;20213;-74
2022/06/21 00:23:56;;;;;;;4.10;2.20;;;23.90;95.80;;;;;;4223576;28;20218;-73
2022/06/21 00:25:59;;;;;;;2.88;1.67;;;23.90;95.80;;;;;;4222473;27;20263;-73
2022/06/21 00:28:01;;;;;;;4.90;2.05;;;23.80;95.70;;;;;;4222305;28;20244;-73
2022/06/21 00:30:04;;;;;;;4.47;1.95;;;23.90;95.80;;;;;;4223765;27;20230;-73
2022/06/21 00:32:13;;;;;;;2.75;1.60;;;23.80;95.80;;;;;;4223478;27;20266;-73
2022/06/21 00:34:18;;;;;;;2.78;1.70;;;23.90;95.90;;;;;;4220297;28;20214;-74
2022/06/21 00:36:24;;;;;;;2.72;1.80;;;23.80;95.80;;;;;;4220674;28;20225;-73
2022/06/21 00:38:29;;;;;;;3.75;1.65;;;23.80;95.80;;;;;;4221926;28;20565;-73
2022/06/21 00:40:34;;;;;;;3.60;1.80;;;23.80;95.90;;;;;;4224679;28;20213;-73
2022/06/21 00:42:38;;;;;;;3.83;2.00;;;23.80;95.90;;;;;;4220637;28;20723;-73
2022/06/21 00:44:44;;;;;;;3.70;1.80;;;23.80;95.90;;;;;;4222663;28;20927;-73
2022/06/21 00:46:49;;;;;;;2.80;1.73;;;23.80;96.00;;;;;;4220570;28;20693;-74
2022/06/21 00:48:54;;;;;;;4.40;1.85;;;23.80;96.00;;;;;;4221203;28;20221;-73
2022/06/21 00:51:01;;;;;;;4.10;1.67;;;23.80;96.00;;;;;;4222316;28;20631;-74
2022/06/21 00:53:08;;;;;;;3.97;1.90;;;23.80;96.00;;;;;;4222112;28;20657;-73
2022/06/21 00:55:16;;;;;;;4.28;2.10;;;23.80;96.00;;;;;;4221788;28;20221;-73
2022/06/21 00:57:22;;;;;;;3.05;1.65;;;23.80;96.00;;;;;;4224829;28;21675;-73
2022/06/21 00:59:27;;;;;;;3.05;1.88;;;23.80;96.00;;;;;;4221630;28;20218;-73
2022/06/21 01:01:33;;;;;;;2.15;1.63;;;23.80;96.00;;;;;;4224025;28;20670;-73
2022/06/21 01:03:38;;;;;;;2.63;1.60;;;23.80;96.10;;;;;;4220241;28;20298;-73
2022/06/21 01:05:45;;;;;;;3.90;1.75;;;23.80;96.10;;;;;;4223233;28;20270;-73
2022/06/21 01:07:47;;;;;;;2.67;1.55;;;23.80;96.10;;;;;;4219728;28;20259;-74
2022/06/21 01:09:53;;;;;;;2.65;1.83;;;23.70;96.10;;;;;;4221633;28;20229;-73
2022/06/21 01:12:08;;;;;;;3.45;1.70;;;23.80;96.10;;;;;;4222084;28;20291;-73
2022/06/21 01:14:11;;;;;;;3.67;1.60;;;23.80;96.20;;;;;;4223376;28;20282;-73
2022/06/21 01:16:14;;;;;;;5.28;1.70;;;23.80;96.10;;;;;;4222632;28;20698;-73
2022/06/21 01:18:20;;;;;;;3.53;1.65;;;23.70;96.10;;;;;;4220309;28;20214;-73
2022/06/21 01:20:24;;;;;;;3.05;1.85;;;23.70;96.50;;;;;;4223920;28;20218;-73
2022/06/21 01:22:38;;;;;;;3.95;1.90;;;23.70;96.40;;;;;;4223811;28;20274;-73
2022/06/21 01:24:50;;;;;;;3.42;1.70;;;23.70;96.20;;;;;;4223348;28;20627;-73
2022/06/21 01:26:57;;;;;;;3.05;1.60;;;23.70;96.20;;;;;;4226089;27;20214;-73
2022/06/21 01:29:01;;;;;;;5.68;1.98;;;23.70;96.20;;;;;;4224983;28;20218;-73
2022/06/21 01:31:03;;;;;;;3.65;1.90;;;23.70;96.20;;;;;;4226716;27;20746;-73
2022/06/21 01:33:07;;;;;;;4.82;2.30;;;23.70;96.30;;;;;;4225257;27;20218;-73
2022/06/21 01:35:14;;;;;;;2.88;1.90;;;23.70;96.30;;;;;;4223253;28;20214;-73
2022/06/21 01:37:20;;;;;;;3.05;2.00;;;23.70;96.30;;;;;;4224506;28;20526;-73
2022/06/21 01:39:27;;;;;;;4.57;2.17;;;23.70;96.30;;;;;;4225846;27;20225;-73
2022/06/21 01:41:34;;;;;;;3.90;1.50;;;23.70;96.70;;;;;;4224087;28;20258;-73
2022/06/21 01:43:41;;;;;;;3.20;1.83;;;23.70;96.30;;;;;;4224821;28;20214;-73
2022/06/21 01:45:48;;;;;;;3.28;1.90;;;23.70;96.30;;;;;;4224559;28;20222;-73
2022/06/21 01:47:55;;;;;;;4.03;2.00;;;23.70;96.30;;;;;;4222338;28;20217;-73
2022/06/21 01:50:00;;;;;;;4.35;1.80;;;23.70;96.30;;;;;;4225356;28;20238;-74
2022/06/21 01:52:07;;;;;;;3.08;1.73;;;23.70;96.30;;;;;;4226278;27;20692;-74
2022/06/21 01:54:14;;;;;;;3.30;1.45;;;23.60;96.30;;;;;;4221909;28;20296;-74
2022/06/21 01:56:21;;;;;;;3.22;1.70;;;23.60;96.30;;;;;;4225411;28;20270;-73
2022/06/21 01:58:28;;;;;;;3.22;1.92;;;23.60;96.30;;;;;;4225772;27;20322;-73
2022/06/21 02:00:35;;;;;;;4.70;2.10;;;23.70;96.40;;;;;;4226228;27;20221;-73
2022/06/21 02:02:42;;;;;;;1.92;1.70;;;23.60;96.40;;;;;;4228996;27;20271;-73
2022/06/21 02:04:49;;;;;;;3.58;1.70;;;23.60;96.40;;;;;;4224469;28;20209;-74
2022/06/21 02:06:52;;;;;;;2.78;1.70;;;23.60;96.70;;;;;;4225364;27;20210;-73
2022/06/21 02:09:01;;;;;;;2.38;1.80;;;23.60;96.40;;;;;;4224559;27;20662;-73
2022/06/21 02:11:07;;;;;;;2.72;1.70;;;23.60;96.40;;;;;;4223366;27;20705;-73
2022/06/21 02:13:15;;;;;;;2.33;1.63;;;23.70;96.40;;;;;;4208533;28;20256;-74
2022/06/21 02:15:38;;;;;;;3.58;1.83;;;23.60;96.40;;;;;;4207211;28;20209;-73
2022/06/21 02:17:44;;;;;;;3.72;1.70;;;23.50;96.40;;;;;;4208398;28;20222;-74
2022/06/21 02:19:50;;;;;;;2.42;1.77;;;23.60;96.40;;;;;;4208605;28;20256;-73
2022/06/21 02:21:52;;;;;;;3.58;2.00;;;23.60;96.50;;;;;;4208304;28;20218;-74
2022/06/21 02:23:57;;;;;;;3.75;1.88;;;23.60;96.50;;;;;;4208984;28;20215;-74
2022/06/21 02:25:59;;;;;;;3.47;1.65;;;23.60;96.50;;;;;;4209347;28;20219;-74
2022/06/21 02:28:08;;;;;;;4.13;1.70;;;23.60;96.50;;;;;;4208462;28;20299;-74
2022/06/21 02:30:16;;;;;;;3.20;1.90;;;23.60;96.50;;;;;;4208503;28;20230;-74
2022/06/21 02:32:26;;;;;;;3.72;1.65;;;23.60;96.50;;;;;;4205798;28;20935;-74
2022/06/21 02:34:39;;;;;;;2.85;1.50;;;23.60;96.60;;;;;;4206660;28;20214;-74
2022/06/21 02:36:47;;;;;;;3.47;1.83;;;23.60;96.60;;;;;;4208418;28;20275;-74
2022/06/21 02:38:54;;;;;;;3.38;1.90;;;23.50;96.50;;;;;;4207773;28;20263;-74
2022/06/21 02:41:03;;;;;;;2.50;1.85;;;23.50;96.60;;;;;;4207590;28;20211;-74
2022/06/21 02:43:12;;;;;;;3.13;1.60;;;23.50;96.60;;;;;;4200267;28;20280;-74
2022/06/21 02:45:22;;;;;;;5.13;2.00;;;23.60;96.70;;;;;;4197722;28;20304;-74
2022/06/21 02:47:30;;;;;;;2.78;1.67;;;23.50;96.60;;;;;;4200627;28;20620;-74
2022/06/21 02:49:36;;;;;;;4.03;1.95;;;23.50;96.60;;;;;;4190365;28;20590;-73
2022/06/21 02:51:43;;;;;;;3.00;1.70;;;23.50;96.60;;;;;;4204882;28;20603;-73
2022/06/21 02:53:51;;;;;;;4.18;1.90;;;23.50;96.60;;;;;;4206704;28;20218;-73
2022/06/21 02:55:57;;;;;;;3.22;1.70;;;23.50;96.60;;;;;;4206463;28;20222;-73
2022/06/21 02:58:05;;;;;;;2.78;1.65;;;23.50;96.60;;;;;;4199641;28;20554;-73
2022/06/21 03:00:13;;;;;;;2.88;1.70;;;23.50;96.70;;;;;;4201500;28;20215;-73
2022/06/21 03:02:23;;;;;;;2.92;1.63;;;23.50;96.70;;;;;;4206509;28;20214;-73
2022/06/21 03:04:33;;;;;;;4.75;1.67;;;23.50;96.70;;;;;;4206085;28;20259;-73
2022/06/21 03:06:36;;;;;;;4.47;1.92;;;23.50;96.70;;;;;;4205503;28;20271;-73
2022/06/21 03:08:49;;;;;;;3.80;1.90;;;23.50;96.70;;;;;;4206577;28;20214;-74
2022/06/21 03:10:52;;;;;;;2.30;1.65;;;23.50;96.80;;;;;;4194367;28;20748;-74
2022/06/21 03:13:02;;;;;;;2.70;1.75;;;23.50;97.10;;;;;;4240967;27;20233;-74
2022/06/21 03:15:09;;;;;;;3.45;1.75;;;23.50;96.80;;;;;;4240803;27;20246;-73
2022/06/21 03:17:15;;;;;;;3.60;1.85;;;23.50;96.80;;;;;;4240683;27;20665;-74
2022/06/21 03:19:24;;;;;;;3.97;1.85;;;23.40;96.70;;;;;;4239627;27;20278;-74
2022/06/21 03:21:30;;;;;;;2.88;1.83;;;23.50;96.80;;;;;;4241820;27;20718;-73
2022/06/21 03:23:33;;;;;;;2.95;2.00;;;23.40;96.80;;;;;;4239446;27;20601;-73
2022/06/21 03:25:42;;;;;;;3.22;1.45;;;23.40;96.80;;;;;;4241385;27;20217;-73
2022/06/21 03:27:52;;;;;;;4.72;2.13;;;23.50;96.90;;;;;;4239887;27;20209;-74
2022/06/21 03:29:55;;;;;;;3.22;1.73;;;23.40;96.80;;;;;;4240776;27;20238;-74
2022/06/21 03:32:00;;;;;;;2.83;1.55;;;23.50;96.80;;;;;;4239678;27;20712;-74
2022/06/21 03:34:06;;;;;;;3.88;2.00;;;23.50;96.80;;;;;;4239822;27;20274;-73
2022/06/21 03:36:17;;;;;;;3.72;1.98;;;23.50;96.80;;;;;;4240887;27;20273;-73
2022/06/21 03:38:22;;;;;;;4.80;1.98;;;23.40;96.80;;;;;;4241338;27;20213;-74
2022/06/21 03:42:49;;;;;;;2.38;1.60;;;23.50;96.90;;;;;;4241082;27;20205;-74
2022/06/21 03:44:56;;;;;;;3.03;1.95;;;23.40;96.80;;;;;;4240947;27;20217;-73
2022/06/21 03:47:06;;;;;;;2.55;2.00;;;23.40;96.90;;;;;;4241643;27;20672;-74
2022/06/21 03:49:15;;;;;;;4.63;2.00;;;23.40;96.90;;;;;;4241489;27;20598;-73
2022/06/21 03:51:22;;;;;;;3.33;1.83;;;23.40;96.90;;;;;;4241175;27;20240;-74
2022/06/21 03:53:31;;;;;;;3.20;1.90;;;23.40;96.90;;;;;;4239980;27;20269;-74
2022/06/21 03:55:50;;;;;;;2.30;1.90;;;23.40;96.90;;;;;;4240146;27;20216;-73
2022/06/21 03:57:59;;;;;;;5.18;2.50;;;23.40;96.90;;;;;;4239488;27;20221;-74
2022/06/21 04:00:05;;;;;;;3.35;2.05;;;23.40;96.90;;;;;;4241248;27;20709;-73
2022/06/21 04:02:13;;;;;;;3.42;1.77;;;23.40;96.90;;;;;;4240013;27;20213;-74
2022/06/21 04:04:21;;;;;;;4.13;2.25;;;23.40;96.90;;;;;;4240750;27;20217;-74
2022/06/21 04:06:29;;;;;;;3.58;1.75;;;23.40;96.90;;;;;;4240218;27;20225;-74
2022/06/21 04:08:39;;;;;;;3.13;2.00;;;23.40;96.90;;;;;;4240624;27;20262;-74
2022/06/21 04:10:47;;;;;;;2.72;2.03;;;23.40;97.00;;;;;;4239742;27;20213;-74
2022/06/21 04:12:54;;;;;;;2.90;1.60;;;23.40;97.00;;;;;;4240727;27;20584;-74
2022/06/21 04:15:02;;;;;;;3.25;1.50;;;23.40;97.00;;;;;;4239434;27;20212;-73
2022/06/21 04:17:13;;;;;;;2.42;1.90;;;23.40;97.00;;;;;;4240762;27;20216;-74
2022/06/21 04:19:23;;;;;;;4.60;2.13;;;23.40;97.00;;;;;;4240128;27;20220;-73
2022/06/21 04:21:32;;;;;;;4.05;1.85;;;23.40;97.00;;;;;;4239450;27;20212;-73
2022/06/21 04:23:41;;;;;;;2.85;1.80;;;23.40;97.00;;;;;;4241340;27;20867;-74
2022/06/21 04:25:50;;;;;;;3.40;1.90;;;23.40;97.00;;;;;;4239999;27;20274;-74
2022/06/21 04:27:57;;;;;;;2.65;1.92;;;23.40;97.00;;;;;;4239128;27;20221;-74
2022/06/21 04:30:04;;;;;;;3.88;1.95;;;23.40;97.00;;;;;;4240046;27;20254;-74
2022/06/21 04:32:13;;;;;;;3.10;1.55;;;23.40;97.00;;;;;;4239223;27;20228;-74
2022/06/21 04:34:22;;;;;;;3.15;1.75;;;23.40;97.00;;;;;;4239156;27;20216;-74
2022/06/21 04:36:28;;;;;;;3.22;1.90;;;23.40;97.00;;;;;;4240604;27;20277;-74
2022/06/21 04:38:36;;;;;;;3.40;2.00;;;23.40;97.10;;;;;;4240721;27;20217;-74
2022/06/21 04:40:41;;;;;;;3.22;2.08;;;23.40;97.10;;;;;;4240237;27;20221;-74
2022/06/21 04:42:49;;;;;;;3.35;1.88;;;23.40;97.10;;;;;;4239318;27;21608;-74
2022/06/21 04:44:58;;;;;;;3.20;2.00;;;23.30;97.00;;;;;;4239894;27;20544;-73
2022/06/21 04:47:06;;;;;;;3.00;2.10;;;23.30;97.00;;;;;;4241011;27;20213;-74
2022/06/21 04:49:15;;;;;;;5.40;1.98;;;23.40;97.10;;;;;;4240621;27;20633;-73
2022/06/21 04:51:22;;;;;;;2.65;2.00;;;23.30;97.00;;;;;;4240119;27;20236;-74
2022/06/21 04:53:29;;;;;;;3.40;1.80;;;23.40;97.00;;;;;;4240383;27;20221;-73
2022/06/21 04:55:41;;;;;;;3.00;2.05;;;23.40;97.00;;;;;;4241946;27;20630;-74
2022/06/21 04:57:46;;;;;;;3.13;1.95;;;23.30;97.00;;;;;;4243746;27;20257;-74
2022/06/21 04:59:51;;;;;;;2.72;1.75;;;23.30;97.00;;;;;;4243855;27;21777;-74
2022/06/21 05:01:54;;;;;;;2.83;1.92;;;23.40;97.10;;;;;;4243003;27;20209;-73
2022/06/21 05:03:59;;;;;;;3.10;1.88;;;23.30;97.00;;;;;;4243974;27;20216;-73
2022/06/21 05:06:02;;;;;;;3.83;1.90;;;23.30;97.00;;;;;;4241838;27;21693;-74
2022/06/21 05:08:09;;;;;;;3.10;2.10;;;23.40;97.10;;;;;;4243315;27;20217;-74
2022/06/21 05:10:17;;;;;;;3.13;2.00;;;23.40;97.00;;;;;;4242737;27;21001;-73
2022/06/21 05:12:27;;;;;;;4.57;2.33;;;23.40;97.10;;;;;;4241175;27;20298;-73
2022/06/21 05:14:34;;;;;;;2.70;1.58;;;23.40;97.10;;;;;;4243198;27;20221;-74
2022/06/21 05:16:40;;;;;;;3.30;1.80;;;23.40;97.00;;;;;;4242601;27;20305;-74
2022/06/21 05:18:46;;;;;;;3.08;1.52;;;23.40;97.00;;;;;;4241803;27;20254;-74
2022/06/21 05:20:51;;;;;;;2.65;1.70;;;23.40;97.00;;;;;;4243426;27;20677;-74
2022/06/21 05:22:56;;;;;;;2.80;1.73;;;23.40;97.10;;;;;;4241630;27;20201;-74
2022/06/21 05:25:00;;;;;;;3.08;1.70;;;23.40;97.10;;;;;;4242254;27;20209;-74
2022/06/21 05:27:09;;;;;;;2.10;1.48;;;23.40;97.10;;;;;;4242919;27;20217;-74
2022/06/21 05:29:18;;;;;;;3.05;1.70;;;23.40;97.10;;;;;;4243189;27;20213;-74
2022/06/21 05:31:24;;;;;;;3.90;1.90;;;23.40;97.00;;;;;;4240497;27;20269;-74
2022/06/21 05:33:35;;;;;;;3.85;2.00;;;23.40;97.00;;;;;;4243186;27;20269;-74
2022/06/21 05:35:37;;;;;;;2.72;1.80;;;23.40;97.00;;;;;;4242282;27;20212;-74
2022/06/21 05:37:50;;;;;;;4.00;2.30;;;23.40;97.00;;;;;;4243087;27;20221;-74
2022/06/21 05:39:54;;;;;;;5.15;2.13;;;23.40;97.10;;;;;;4241815;27;20209;-74
2022/06/21 05:42:01;;;;;;;3.22;1.90;;;23.40;97.00;;;;;;4243570;27;20213;-74
2022/06/21 05:44:11;;;;;;;2.78;1.75;;;23.40;97.00;;;;;;4242990;27;20274;-74
2022/06/21 05:46:18;;;;;;;4.93;2.15;;;23.40;97.10;;;;;;4242704;27;20957;-74
2022/06/21 05:48:23;;;;;;;3.53;1.90;;;23.40;97.10;;;;;;4242858;27;20269;-74
2022/06/21 05:50:29;;;;;;;3.05;2.00;;;23.40;97.10;;;;;;4243254;27;20213;-74
2022/06/21 05:52:35;;;;;;;3.20;1.80;;;23.40;97.10;;;;;;4242728;27;20237;-73
2022/06/21 05:54:41;;;;;;;3.58;2.10;;;23.40;97.10;;;;;;4242848;27;20221;-73
2022/06/21 05:56:44;;;;;;;4.40;1.90;;;23.40;97.10;;;;;;4242461;27;20213;-74
2022/06/21 05:58:49;;;;;;;3.70;2.15;;;23.40;97.10;;;;;;4243591;27;20655;-73
2022/06/21 06:00:58;;;;;;;3.70;1.83;;;23.40;97.10;;;;;;4243396;27;20693;-74
2022/06/21 06:03:07;;;;;;;3.97;1.90;;;23.40;97.00;;;;;;4242322;27;20200;-74
2022/06/21 06:05:15;;;;;;;4.03;2.00;;;23.40;97.00;;;;;;4243726;27;20216;-74
2022/06/21 06:07:24;;;;;;;4.32;1.73;;;23.50;97.10;;;;;;4242342;27;20216;-74
2022/06/21 06:09:29;;;;;;;5.22;2.20;;;23.50;97.10;;;;;;4240778;27;20216;-74
2022/06/21 06:14:13;;;;;;;2.92;1.75;;;23.50;97.40;;;;;;4171774;27;20781;-74
2022/06/21 06:16:33;;;;;;;3.25;1.95;;;23.40;97.00;;;;;;4174881;27;20212;-74
2022/06/21 06:18:43;;;;;;;2.83;1.73;;;23.50;97.40;;;;;;4177896;27;20767;-74
2022/06/21 06:20:51;;;;;;;3.47;1.77;;;23.50;97.10;;;;;;4178432;27;20237;-74
2022/06/21 06:22:58;;;;;;;2.95;2.00;;;23.50;97.10;;;;;;4183361;27;20640;-74
2022/06/21 06:25:06;;;;;;;3.45;2.08;;;23.50;97.10;;;;;;4185222;27;20264;-74
2022/06/21 06:27:20;;;;;;;3.42;2.10;;;23.50;97.10;;;;;;4177241;27;20628;-73
2022/06/21 06:29:29;;;;;;;3.58;1.83;;;23.50;97.10;;;;;;4183606;27;20212;-73
2022/06/21 06:31:37;;;;;;;3.70;1.83;;;23.50;97.10;;;;;;4179460;27;20269;-73
2022/06/21 06:33:43;;;;;;;2.35;1.60;;;23.50;97.10;;;;;;4178928;27;20239;-73
2022/06/21 06:35:47;;;;;;;2.70;1.90;;;23.50;97.10;;;;;;4184236;27;20559;-74
2022/06/21 06:37:50;;;;;;;2.67;1.50;;;23.50;97.10;;;;;;4184649;27;20261;-73
2022/06/21 06:39:53;;;;;;;3.25;2.03;;;23.50;97.10;;;;;;4177501;27;20273;-73
2022/06/21 06:42:01;;;;;;;3.80;1.85;;;23.50;97.20;;;;;;4181167;27;20215;-74
2022/06/21 06:44:06;;;;;;;3.70;1.90;;;23.50;97.10;;;;;;4173041;27;20229;-73
2022/06/21 06:46:19;;;;;;;2.63;1.80;;;23.50;97.10;;;;;;4178557;27;20228;-73
2022/06/21 06:48:26;;;;;;;2.97;1.58;;;23.60;97.10;;;;;;4179247;27;20723;-74
2022/06/21 06:50:34;;;;;;;2.63;1.75;;;23.60;97.10;;;;;;4176464;27;20613;-73
2022/06/21 06:52:40;;;;;;;2.67;1.70;;;23.60;97.10;;;;;;4171556;27;20215;-73
2022/06/21 06:54:51;;;;;;;3.20;1.80;;;23.60;97.10;;;;;;4175717;27;20224;-74
2022/06/21 06:57:03;;;;;;;8.93;2.75;;;23.60;97.10;;;;;;4173194;27;20253;-74
2022/06/21 06:59:13;;;;;;;7.45;3.55;;;23.10;96.70;;;;;;4167224;27;20262;-73
2022/06/21 07:01:21;;;;;;;5.30;3.28;;;22.70;97.20;;;;;;4171713;27;20720;-73
2022/06/21 07:03:26;;;;;;;5.30;3.35;;;22.40;97.60;;;;;;4175824;27;20904;-73
2022/06/21 07:05:33;;;;;;;6.20;3.50;;;22.30;97.60;;;;;;4171086;27;20219;-74
2022/06/21 07:07:42;;;;;;;6.60;3.70;;;22.30;97.80;;;;;;4170115;27;20225;-74
2022/06/21 07:09:49;;;;;;;5.50;3.55;;;22.20;97.60;;;;;;4179944;27;20220;-73
2022/06/21 07:11:57;;;;;;;6.75;3.80;;;22.10;97.80;;;;;;4174084;27;20220;-74
2022/06/21 07:14:01;;;;;;;8.27;3.88;;;22.20;97.70;;;;;;4172169;27;20311;-74
2022/06/21 07:16:09;;;;;;;8.40;4.00;;;22.20;97.80;;;;;;4169366;27;20227;-74
2022/06/21 07:18:22;;;;;;;10.60;4.53;;;22.20;97.60;;;;;;4177815;27;20212;-74
2022/06/21 07:20:27;;;;;;;6.85;4.35;;;22.20;97.50;;;;;;4169929;27;20713;-74
2022/06/21 07:22:34;;;;;;;9.10;4.40;;;22.10;98.10;;;;;;4175491;27;20940;-74
2022/06/21 07:24:36;;;;;;;9.02;4.20;;;22.00;98.10;;;;;;4166973;27;20209;-75
2022/06/21 07:26:44;;;;;;;9.13;4.13;;;22.00;97.90;;;;;;4156203;27;20216;-75
2022/06/21 07:28:51;;;;;;;8.05;4.00;;;22.00;97.90;;;;;;4165299;27;20276;-75
2022/06/21 07:30:56;;;;;;;8.77;4.10;;;22.10;97.90;;;;;;4170771;27;20216;-75
2022/06/21 07:33:05;;;;;;;11.20;4.85;;;22.00;98.10;;;;;;4166134;27;20269;-74
2022/06/21 07:35:14;;;;;;;8.68;4.47;;;21.90;98.30;;;;;;4164159;27;20221;-75
2022/06/21 07:37:21;;;;;;;6.72;3.72;;;21.90;98.40;;;;;;4164638;27;20213;-75
2022/06/21 07:39:28;;;;;;;5.88;3.70;;;22.00;98.30;;;;;;4160005;27;20213;-76
2022/06/21 07:41:35;;;;;;;8.45;4.10;;;22.10;98.10;;;;;;4153495;28;20285;-75
2022/06/21 07:43:42;;;;;;;8.15;4.13;;;22.10;98.10;;;;;;4169752;27;20265;-75
2022/06/21 07:45:49;;;;;;;10.70;4.80;;;22.10;97.90;;;;;;4170531;27;20269;-75
2022/06/21 07:47:57;;;;;;;9.90;4.32;;;22.20;97.70;;;;;;4161818;27;20217;-74
2022/06/21 07:50:07;;;;;;;8.60;4.68;;;22.00;98.10;;;;;;4170029;27;20601;-75
2022/06/21 07:52:17;;;;;;;10.32;4.85;;;22.00;98.30;;;;;;4159324;27;20365;-76
2022/06/21 07:54:25;;;;;;;10.27;4.88;;;22.00;98.40;;;;;;4164861;27;20232;-77
2022/06/21 07:56:37;;;;;;;5.93;4.22;;;22.20;98.20;;;;;;4164283;27;20231;-78
2022/06/21 07:58:42;;;;;;;8.52;4.72;;;22.20;98.00;;;;;;4164762;27;20621;-75
2022/06/21 08:08:02;;;;;;;8.80;3.78;;;22.20;98.30;;;;;;4161485;27;20205;-75
2022/06/21 08:10:10;;;;;;;11.75;4.43;;;22.20;98.00;;;;;;4163250;27;20273;-75
2022/06/21 08:12:15;;;;;;;10.63;4.50;;;22.30;98.00;;;;;;4157663;27;20224;-73
2022/06/21 08:14:18;;;;;;;13.23;5.05;;;22.20;98.00;;;;;;4159327;27;20233;-73
2022/06/21 08:16:23;;;;;;;9.50;4.45;;;22.10;98.20;;;;;;4160045;27;20220;-73
2022/06/21 08:18:32;;;;;;;12.68;4.60;;;22.20;98.20;;;;;;4162655;27;20239;-72
2022/06/21 08:20:39;;;;;;;9.27;4.10;;;22.20;98.10;;;;;;4160449;27;20224;-72
2022/06/21 08:22:46;;;;;;;13.65;4.07;;;22.30;98.00;;;;;;4157240;27;21577;-72
2022/06/21 08:24:56;;;;;;;9.02;4.20;;;22.20;98.00;;;;;;4156394;28;20237;-74
2022/06/21 08:27:08;;;;;;;9.32;4.13;;;22.30;98.00;;;;;;4157383;27;20246;-73
2022/06/21 08:29:20;;;;;;;6.88;4.15;;;22.30;97.80;;;;;;4157375;27;20270;-74
2022/06/21 08:31:28;;;;;;;9.93;4.45;;;22.40;97.70;;;;;;4161469;27;20212;-75
2022/06/21 08:33:35;;;;;;;8.27;4.10;;;22.40;97.60;;;;;;4165156;27;20223;-74
2022/06/21 08:35:41;;;;;;;6.80;4.13;;;22.50;97.70;;;;;;4154906;27;20335;-74
2022/06/21 08:37:50;;;;;;;8.65;3.90;;;22.40;97.50;;;;;;4172934;27;20999;-74
2022/06/21 08:39:59;;;;;;;8.02;3.92;;;22.40;97.50;;;;;;4162102;27;20269;-74
2022/06/21 08:42:24;;;;;;;6.43;4.00;;;22.40;97.60;;;;;;4172817;27;20220;-74
2022/06/21 08:47:52;;;;;;;9.50;3.63;;;22.30;97.60;;;;;;4211313;28;20206;-74
2022/06/21 08:50:16;;;;;;;7.93;3.75;;;22.40;97.60;;;;;;4203953;28;20210;-75
2022/06/21 08:52:47;;;;;;;10.35;3.95;;;22.30;98.00;;;;;;4186138;27;20228;-75
2022/06/21 08:55:04;;;;;;;8.68;3.70;;;22.40;97.70;;;;;;4164068;27;20772;-75
2022/06/21 08:57:14;;;;;;;7.80;3.90;;;22.40;97.70;;;;;;4169508;27;20632;-74
2022/06/21 08:59:25;;;;;;;8.93;4.32;;;22.40;97.80;;;;;;4163919;27;20265;-73
2022/06/21 09:01:34;;;;;;;8.50;4.20;;;22.40;97.90;;;;;;4165297;27;20552;-74
2022/06/21 09:03:50;;;;;;;9.88;4.20;;;22.40;97.90;;;;;;4159242;27;20197;-74
2022/06/21 09:06:08;;;;;;;9.52;3.55;;;22.30;97.80;;;;;;4177387;27;20216;-77
2022/06/21 09:08:30;;;;;;;7.05;4.13;;;22.40;97.80;;;;;;4165137;27;20262;-76
2022/06/21 09:10:43;;;;;;;8.25;4.40;;;22.40;97.80;;;;;;4166494;27;20266;-75
2022/06/21 09:13:02;;;;;;;13.82;4.15;;;22.50;97.90;;;;;;4165628;27;20784;-74
2022/06/21 09:15:40;;;;;;;10.20;4.32;;;22.40;98.00;;;;;;4161381;27;20232;-76
2022/06/21 09:17:53;;;;;;;8.82;4.15;;;22.30;98.20;;;;;;4159578;27;20268;-75
2022/06/21 09:20:10;;;;;;;6.18;4.03;;;22.40;98.10;;;;;;4157350;27;20601;-73
2022/06/21 09:22:21;;;;;;;11.30;3.60;;;22.50;97.90;;;;;;4163228;27;20270;-74
2022/06/21 09:24:37;;;;;;;8.73;4.20;;;22.40;97.80;;;;;;4167605;27;20212;-75
2022/06/21 09:26:48;;;;;;;9.02;3.72;;;22.50;97.70;;;;;;4165054;27;20205;-75
2022/06/21 09:28:56;;;;;;;8.57;4.57;;;22.60;97.60;;;;;;4159975;28;20288;-74
2022/06/21 09:31:05;;;;;;;7.78;4.57;;;22.50;97.60;;;;;;4160734;27;20220;-74
2022/06/21 09:33:15;;;;;;;7.20;3.92;;;22.50;97.60;;;;;;4158134;27;20208;-73
2022/06/21 09:35:30;;;;;;;6.45;4.00;;;22.60;97.60;;;;;;4161957;27;20240;-75
2022/06/21 09:37:44;;;;;;;8.07;4.00;;;22.60;97.80;;;;;;4161839;27;20220;-74
2022/06/21 09:39:55;;;;;;;5.50;4.15;;;22.50;98.00;;;;;;4170788;27;20220;-75
2022/06/21 09:42:08;;;;;;;10.45;4.38;;;22.60;97.50;;;;;;4169673;27;20224;-73
2022/06/21 09:44:16;;;;;;;8.98;4.25;;;22.50;97.60;;;;;;4167693;27;20212;-74
2022/06/21 09:46:26;;;;;;;8.27;3.83;;;22.50;97.60;;;;;;4168818;27;20224;-75
2022/06/21 09:48:35;;;;;;;7.93;4.43;;;22.40;97.60;;;;;;4167815;27;20223;-75
2022/06/21 09:50:50;;;;;;;8.98;4.32;;;22.50;97.60;;;;;;4177537;27;20212;-76
2022/06/21 09:52:59;;;;;;;10.18;4.10;;;22.60;97.40;;;;;;4176070;27;20229;-76
2022/06/21 09:55:13;;;;;;;9.05;3.80;;;22.60;97.20;;;;;;4162721;28;20236;-75
2022/06/21 09:57:26;;;;;;;7.95;3.78;;;22.60;97.00;;;;;;4166499;28;20216;-78
2022/06/21 09:59:35;;;;;;;9.30;3.97;;;22.70;97.30;;;;;;4167789;27;20228;-76
2022/06/21 10:01:42;;;;;;;9.05;3.80;;;22.80;96.70;;;;;;4163734;28;20254;-74
2022/06/21 10:03:50;;;;;;;6.68;3.70;;;22.70;96.70;;;;;;4176238;27;20320;-75
2022/06/21 10:05:57;;;;;;;7.95;3.53;;;22.70;96.70;;;;;;4160210;28;20284;-75
2022/06/21 10:08:18;;;;;;;8.27;3.47;;;22.70;96.50;;;;;;4159042;28;20232;-75
2022/06/21 10:10:33;;;;;;;7.75;3.63;;;22.60;96.40;;;;;;4165764;28;20224;-75
2022/06/21 10:12:48;;;;;;;6.72;3.33;;;22.60;96.20;;;;;;4168785;28;21333;-75
2022/06/21 10:15:21;;;;;;;9.32;4.22;;;22.60;96.30;;;;;;4155579;28;20329;-76
2022/06/21 10:17:54;;;;;;;7.72;3.67;;;22.60;96.20;;;;;;4162027;28;20926;-75
2022/06/21 10:20:13;;;;;;;6.65;3.58;;;22.60;96.40;;;;;;4160478;28;20264;-75
2022/06/21 10:22:30;;;;;;;10.68;4.43;;;22.50;96.10;;;;;;4158862;27;20265;-75
2022/06/21 10:24:52;;;;;;;8.55;3.72;;;22.50;96.30;;;;;;4162295;28;20862;-75
2022/06/21 10:27:10;;;;;;;6.07;3.88;;;22.50;96.40;;;;;;4158696;28;20276;-77
2022/06/21 10:29:43;;;;;;;9.32;4.18;;;22.50;96.40;;;;;;4165498;28;20217;-74
2022/06/21 10:32:04;;;;;;;9.18;3.97;;;22.50;96.40;;;;;;4167055;28;20911;-75
2022/06/21 10:34:50;;;;;;;8.45;4.22;;;22.60;96.50;;;;;;4158712;28;20221;-76
2022/06/21 10:37:15;;;;;;;9.43;4.32;;;22.60;96.50;;;;;;4159585;28;20276;-74
2022/06/21 10:39:31;;;;;;;7.55;4.05;;;22.60;96.40;;;;;;4167628;28;20204;-74
2022/06/21 10:42:46;;;;;;;8.27;4.22;;;22.80;96.30;;;;;;4158194;28;20220;-74
2022/06/21 10:44:36;;;;;;;10.18;4.00;;;22.80;96.20;;;;;;4161888;28;20225;-75
2022/06/21 10:46:44;;;;;;;11.90;3.67;;;22.70;96.40;;;;;;4158574;28;20212;-77
2022/06/21 10:49:19;;;;;;;7.47;3.70;;;22.70;96.50;;;;;;4164509;28;20537;-76
2022/06/21 10:51:32;;;;;;;7.25;4.03;;;22.60;96.50;;;;;;4156308;28;20716;-76
2022/06/21 10:53:49;;;;;;;10.75;3.55;;;22.70;96.50;;;;;;4157618;28;20273;-75
2022/06/21 10:58:36;;;;;;;9.70;4.40;;;22.70;96.60;;;;;;4158089;28;20258;-75
2022/06/21 11:03:32;;;;;;;9.77;4.65;;;22.70;96.90;;;;;;4160315;27;20225;-76
2022/06/21 11:05:41;;;;;;;13.25;4.50;;;22.60;97.00;;;;;;4167525;27;20220;-75
2022/06/21 11:07:51;;;;;;;13.55;4.78;;;22.70;97.00;;;;;;4155728;27;20220;-74
2022/06/21 11:10:01;;;;;;;11.05;5.53;;;22.50;97.30;;;;;;4166726;27;20217;-75
2022/06/21 11:14:39;;;;;;;11.30;5.35;;;22.70;97.00;;;;;;4169018;27;20217;-76
2022/06/21 11:16:52;;;;;;;7.68;4.88;;;22.60;96.80;;;;;;4165821;27;20678;-77
2022/06/21 11:19:10;;;;;;;11.13;4.30;;;22.60;96.80;;;;;;4160142;27;20228;-76
2022/06/21 11:21:25;;;;;;;14.15;4.53;;;22.60;96.60;;;;;;4158221;28;20242;-76
2022/06/21 11:23:53;;;;;;;10.50;4.38;;;22.60;96.70;;;;;;4176077;27;20269;-76
2022/06/21 11:26:00;;;;;;;10.43;5.22;;;22.50;97.10;;;;;;4168480;27;20213;-77
2022/06/21 11:28:21;;;;;;;10.88;5.53;;;22.50;96.90;;;;;;4178033;27;20224;-75
2022/06/21 11:30:31;;;;;;;13.32;5.07;;;22.60;96.90;;;;;;4157168;27;20212;-74
2022/06/21 11:32:38;;;;;;;14.30;5.43;;;22.60;96.80;;;;;;4161428;27;20231;-74
2022/06/21 11:34:49;;;;;;;11.77;5.45;;;22.60;97.00;;;;;;4156855;27;20761;-75